Time;durP1;ratioP1;P1;durP2;ratioP2;P2;SDS_P1;SDS_P2;PMS_P1;PMS_P2;Temp;Humidity;BMP_temperature;BMP_pressure;BME280_temperature;BME280_humidity;BME280_pressure;Samples;Min_cycle;Max_cycle;Signal;HPM_P1;HPM_P2
2022/08/12 00:44:42;;;;;;;2.40;2.20;;;22.10;93.90;;;;;;6161107;23;20389;-91
2022/08/12 00:47:08;;;;;;;3.17;2.40;;;22.00;93.90;;;;;;6138019;23;20388;-91
2022/08/12 00:49:35;;;;;;;2.33;2.17;;;22.00;93.90;;;;;;6135076;23;20499;-91
2022/08/12 00:52:06;;;;;;;3.10;2.60;;;22.00;94.00;;;;;;6138392;23;20704;-90
2022/08/12 00:54:42;;;;;;;2.83;2.40;;;22.00;94.10;;;;;;6169742;23;20452;-93
2022/08/12 00:57:17;;;;;;;2.10;2.00;;;21.90;94.10;;;;;;6137224;23;20396;-91
2022/08/12 00:59:55;;;;;;;3.80;2.20;;;21.90;94.20;;;;;;6133369;23;20420;-93
2022/08/12 01:02:23;;;;;;;3.00;2.80;;;21.90;94.30;;;;;;6137260;23;20970;-91
2022/08/12 01:13:17;;;;;;;2.87;2.40;;;21.80;94.50;;;;;;6161743;23;20444;-91
2022/08/12 01:15:49;;;;;;;3.53;2.83;;;21.80;94.70;;;;;;6135032;23;20452;-91
2022/08/12 01:18:18;;;;;;;3.30;2.67;;;21.80;94.50;;;;;;6135616;23;20448;-91
2022/08/12 01:20:51;;;;;;;2.87;2.57;;;21.80;94.70;;;;;;6134641;23;20485;-91
2022/08/12 01:23:46;;;;;;;3.10;2.77;;;21.70;94.70;;;;;;6140514;23;20389;-91
2022/08/12 01:26:17;;;;;;;2.30;2.13;;;21.70;94.80;;;;;;6132901;23;20447;-93
2022/08/12 01:28:46;;;;;;;2.30;2.20;;;21.60;94.80;;;;;;6132917;23;20393;-93
2022/08/12 01:31:13;;;;;;;4.10;2.20;;;21.60;94.90;;;;;;6132643;23;20741;-92
2022/08/12 01:33:45;;;;;;;2.70;2.50;;;21.60;94.90;;;;;;6171815;23;20476;-91
2022/08/12 01:36:13;;;;;;;2.97;2.67;;;21.60;95.00;;;;;;6133227;23;20711;-92
2022/08/12 01:38:41;;;;;;;4.30;2.67;;;21.50;95.10;;;;;;6133553;23;20397;-92
2022/08/12 01:41:10;;;;;;;4.13;2.50;;;21.50;95.20;;;;;;6159100;23;20393;-91
2022/08/12 01:43:37;;;;;;;3.80;2.60;;;21.50;95.20;;;;;;6133616;23;20396;-92
2022/08/12 01:46:46;;;;;;;3.13;2.80;;;21.50;95.30;;;;;;6132550;23;20424;-91
2022/08/12 01:49:39;;;;;;;2.47;2.27;;;21.40;95.30;;;;;;6133050;23;20393;-93
2022/08/12 01:52:06;;;;;;;2.93;2.63;;;21.40;95.40;;;;;;6133545;23;20386;-93
2022/08/12 01:54:41;;;;;;;2.63;2.43;;;21.40;95.50;;;;;;6158904;23;20471;-93
2022/08/12 01:57:40;;;;;;;3.07;2.63;;;21.30;95.60;;;;;;6132962;23;20428;-91
2022/08/12 02:00:11;;;;;;;3.03;2.80;;;21.30;95.60;;;;;;6132874;23;20460;-92
2022/08/12 02:03:09;;;;;;;6.63;3.10;;;21.30;95.70;;;;;;6135223;23;20950;-92
2022/08/12 02:11:47;;;;;;;4.07;2.73;;;21.20;96.00;;;;;;6164503;23;20368;-92
2022/08/12 02:14:30;;;;;;;3.30;3.00;;;21.30;96.00;;;;;;6162821;23;20488;-92
2022/08/12 02:17:44;;;;;;;2.87;2.57;;;21.20;96.00;;;;;;6162573;23;20543;-91
2022/08/12 02:20:25;;;;;;;2.90;2.70;;;21.20;96.00;;;;;;6072536;23;20416;-93
2022/08/12 02:22:51;;;;;;;5.10;2.40;;;21.20;96.10;;;;;;6071749;23;20431;-90
2022/08/12 02:25:27;;;;;;;2.70;2.50;;;21.20;96.20;;;;;;6126967;23;20400;-93
2022/08/12 02:27:55;;;;;;;2.60;2.40;;;21.10;96.60;;;;;;6160261;23;20447;-93
2022/08/12 02:30:24;;;;;;;3.00;2.80;;;21.10;96.50;;;;;;6156968;23;20744;-91
2022/08/12 02:32:52;;;;;;;3.50;3.13;;;21.10;96.70;;;;;;6157262;23;20952;-92
2022/08/12 02:35:24;;;;;;;3.50;2.60;;;21.00;96.60;;;;;;6157766;23;20411;-91
2022/08/12 02:37:53;;;;;;;2.83;2.60;;;21.00;96.60;;;;;;6158361;23;20916;-94
2022/08/12 02:40:20;;;;;;;3.53;2.60;;;21.00;96.60;;;;;;6158013;23;20397;-92
2022/08/12 02:43:04;;;;;;;3.00;2.73;;;21.00;96.70;;;;;;6157703;23;20463;-91
2022/08/12 02:46:03;;;;;;;3.60;3.30;;;21.00;96.80;;;;;;6159685;23;20483;-91
2022/08/12 02:48:45;;;;;;;5.93;3.50;;;21.00;96.80;;;;;;6158411;23;20412;-91
2022/08/12 02:51:15;;;;;;;3.60;3.30;;;21.00;96.80;;;;;;6159000;23;20393;-92
2022/08/12 02:53:43;;;;;;;2.77;2.53;;;20.90;96.80;;;;;;6157601;23;20456;-91
2022/08/12 02:56:11;;;;;;;2.80;2.60;;;20.90;96.90;;;;;;6158756;23;20464;-91
2022/08/12 02:58:37;;;;;;;7.37;3.20;;;20.90;96.80;;;;;;6160560;23;20419;-91
2022/08/12 03:01:09;;;;;;;3.60;3.10;;;20.90;96.90;;;;;;6159671;23;20437;-91
2022/08/12 03:03:36;;;;;;;3.57;3.23;;;20.90;97.00;;;;;;6160773;23;20420;-91
2022/08/12 03:06:20;;;;;;;2.97;2.73;;;20.90;97.40;;;;;;6157811;23;20438;-93
2022/08/12 03:08:47;;;;;;;3.23;2.93;;;20.90;97.10;;;;;;6157452;23;20483;-92
2022/08/12 03:11:16;;;;;;;4.63;3.60;;;20.80;97.20;;;;;;6157099;23;20418;-93
2022/08/12 03:13:46;;;;;;;7.13;3.20;;;20.80;97.20;;;;;;6156988;23;20470;-92
2022/08/12 03:16:13;;;;;;;3.47;3.17;;;20.80;97.30;;;;;;6157144;23;20400;-93
2022/08/12 03:18:42;;;;;;;3.80;2.90;;;20.80;97.30;;;;;;6157056;23;20451;-93
2022/08/12 03:21:08;;;;;;;3.77;3.30;;;20.70;97.40;;;;;;6158382;23;20413;-91
2022/08/12 03:23:39;;;;;;;4.30;3.50;;;20.70;97.50;;;;;;6157984;23;20424;-92
2022/08/12 03:26:06;;;;;;;3.77;3.40;;;20.60;97.60;;;;;;6156853;23;20393;-91
2022/08/12 03:28:49;;;;;;;4.80;3.03;;;20.60;97.90;;;;;;6157990;23;20436;-91
2022/08/12 03:31:21;;;;;;;3.43;3.20;;;20.50;98.00;;;;;;6158198;23;20408;-91
2022/08/12 03:33:48;;;;;;;2.90;2.70;;;20.50;98.00;;;;;;6165197;23;20438;-92
2022/08/12 03:36:19;;;;;;;3.67;3.37;;;20.50;98.00;;;;;;6170175;23;20400;-91
2022/08/12 03:41:43;;;;;;;4.50;3.40;;;20.50;98.10;;;;;;6157332;23;20455;-91
2022/08/12 04:01:24;;;;;;;4.00;3.60;;;20.40;98.60;;;;;;6157724;23;20440;-91
2022/08/12 04:03:53;;;;;;;3.23;2.93;;;20.30;98.60;;;;;;6157026;23;20396;-93
2022/08/12 04:06:21;;;;;;;3.40;3.03;;;20.30;99.00;;;;;;6156429;23;20435;-93
2022/08/12 04:08:49;;;;;;;4.70;3.40;;;20.30;98.70;;;;;;6158446;23;20870;-91
2022/08/12 04:14:26;;;;;;;4.00;3.60;;;20.30;98.80;;;;;;6158667;23;20447;-93
2022/08/12 04:16:53;;;;;;;5.70;3.90;;;20.30;98.90;;;;;;6151528;23;20388;-91
2022/08/12 04:19:19;;;;;;;3.47;3.17;;;20.30;99.00;;;;;;6157021;23;20423;-91
2022/08/12 04:21:45;;;;;;;4.10;3.60;;;20.30;99.00;;;;;;6157388;23;20387;-90
2022/08/12 04:24:11;;;;;;;3.50;3.20;;;20.30;99.10;;;;;;6160465;23;20171;-92
2022/08/12 04:26:41;;;;;;;6.87;4.77;;;20.30;99.20;;;;;;6162277;23;20378;-91
2022/08/12 04:29:09;;;;;;;3.83;3.50;;;20.40;99.30;;;;;;6163697;23;20399;-92
2022/08/12 04:31:42;;;;;;;3.73;3.43;;;20.40;99.30;;;;;;6157728;23;20380;-92
2022/08/12 04:34:10;;;;;;;5.47;3.67;;;20.40;99.30;;;;;;6158260;23;20448;-91
2022/08/12 04:36:37;;;;;;;6.53;3.63;;;20.40;99.30;;;;;;6159391;23;20376;-92
2022/08/12 04:39:05;;;;;;;4.63;3.37;;;20.40;99.20;;;;;;6157801;23;20403;-93
2022/08/12 04:41:32;;;;;;;4.10;3.60;;;20.50;99.00;;;;;;6158231;23;20388;-92
2022/08/12 04:43:58;;;;;;;3.67;3.20;;;20.50;99.00;;;;;;6159604;23;20408;-93
2022/08/12 04:46:24;;;;;;;11.23;3.90;;;20.50;99.10;;;;;;6160648;23;20401;-91
2022/08/12 04:48:53;;;;;;;3.70;2.93;;;20.50;99.10;;;;;;6160781;23;20253;-92
2022/08/12 04:51:20;;;;;;;4.17;3.77;;;20.50;99.20;;;;;;6158693;23;20399;-92
2022/08/12 04:53:47;;;;;;;4.63;3.30;;;20.50;99.30;;;;;;6159030;23;20529;-93
2022/08/12 04:56:13;;;;;;;3.57;3.27;;;20.50;99.20;;;;;;6158488;23;20499;-91
2022/08/12 04:58:40;;;;;;;3.43;3.13;;;20.60;99.30;;;;;;6161101;23;20397;-93
2022/08/12 05:01:07;;;;;;;2.90;2.70;;;20.60;99.20;;;;;;6159804;23;20403;-92
2022/08/12 05:03:34;;;;;;;3.23;2.97;;;20.60;99.10;;;;;;6157900;23;20870;-93
2022/08/12 05:06:00;;;;;;;3.20;2.93;;;20.70;99.10;;;;;;6158566;23;20771;-93
2022/08/12 05:08:26;;;;;;;3.20;2.90;;;20.70;99.00;;;;;;6135300;23;20487;-91
2022/08/12 05:10:52;;;;;;;3.63;3.27;;;20.70;99.00;;;;;;6134782;23;20452;-91
2022/08/12 05:13:20;;;;;;;3.60;3.27;;;20.70;99.00;;;;;;6135115;23;20538;-93
2022/08/12 05:15:47;;;;;;;4.20;3.80;;;20.80;98.90;;;;;;6159439;23;20395;-93
2022/08/12 05:18:13;;;;;;;3.67;3.37;;;20.80;98.70;;;;;;6134496;23;20396;-94
2022/08/12 05:20:41;;;;;;;3.50;2.60;;;20.80;98.80;;;;;;6132420;23;20432;-94
2022/08/12 05:23:19;;;;;;;5.50;3.30;;;20.90;98.80;;;;;;6132988;23;20413;-91
2022/08/12 05:25:47;;;;;;;4.17;3.37;;;20.90;98.70;;;;;;6142150;23;20402;-92
2022/08/12 05:28:15;;;;;;;4.13;3.23;;;21.00;98.70;;;;;;6138816;23;20503;-90
2022/08/12 05:30:42;;;;;;;2.53;2.37;;;21.00;98.70;;;;;;6131250;23;20405;-92
2022/08/12 05:33:09;;;;;;;3.03;2.83;;;21.10;98.70;;;;;;6127706;23;20451;-91
2022/08/12 05:35:40;;;;;;;3.60;3.20;;;21.10;98.80;;;;;;6131933;23;20397;-90
2022/08/12 05:40:51;;;;;;;3.50;3.23;;;21.20;98.40;;;;;;6158396;23;20877;-91
2022/08/12 05:43:17;;;;;;;3.67;3.37;;;21.30;98.70;;;;;;6132939;23;20480;-91
2022/08/12 05:45:44;;;;;;;3.97;3.50;;;21.40;98.60;;;;;;6131273;23;20175;-91
2022/08/12 05:48:10;;;;;;;3.37;2.83;;;21.40;98.60;;;;;;6158487;23;20385;-92
2022/08/12 05:50:36;;;;;;;2.83;2.63;;;21.50;98.70;;;;;;6132009;23;20401;-90
2022/08/12 05:53:02;;;;;;;3.63;3.33;;;21.50;98.80;;;;;;6132736;23;20448;-91
2022/08/12 05:55:28;;;;;;;3.70;3.40;;;21.60;99.00;;;;;;6164473;23;20177;-91
2022/08/12 05:57:55;;;;;;;3.30;3.00;;;21.60;99.00;;;;;;6162704;23;20393;-90
2022/08/12 06:00:25;;;;;;;4.57;4.17;;;21.70;98.80;;;;;;6132539;23;20397;-91
2022/08/12 06:03:01;;;;;;;6.57;3.80;;;21.70;99.00;;;;;;6131750;23;20464;-91
2022/08/12 06:05:34;;;;;;;4.97;3.00;;;21.80;99.00;;;;;;6154055;23;21645;-91
2022/08/12 06:08:05;;;;;;;3.37;3.07;;;21.90;99.00;;;;;;6131272;23;20403;-93
2022/08/12 06:10:35;;;;;;;3.27;2.93;;;21.90;98.90;;;;;;6137947;23;20441;-93
2022/08/12 06:13:03;;;;;;;3.63;3.30;;;22.00;98.70;;;;;;6129912;23;20440;-94
2022/08/12 06:15:29;;;;;;;3.17;2.87;;;22.00;98.60;;;;;;6129633;23;20405;-93
2022/08/12 06:18:04;;;;;;;3.90;3.20;;;22.10;98.40;;;;;;6152879;23;20492;-93
2022/08/12 06:20:30;;;;;;;3.90;3.60;;;22.10;98.40;;;;;;6155342;23;20388;-93
2022/08/12 06:22:56;;;;;;;4.00;3.60;;;22.20;98.30;;;;;;6130295;23;20467;-93
2022/08/12 06:25:26;;;;;;;3.03;2.73;;;22.30;98.30;;;;;;6129880;23;20934;-94
2022/08/12 06:27:52;;;;;;;3.60;3.30;;;22.30;98.30;;;;;;6132447;23;20840;-92
2022/08/12 06:30:20;;;;;;;3.40;2.83;;;22.40;98.30;;;;;;6128897;23;20413;-91
2022/08/12 06:32:48;;;;;;;3.97;3.67;;;22.40;98.40;;;;;;6129784;23;20198;-93
2022/08/12 06:35:18;;;;;;;5.20;2.90;;;22.50;98.40;;;;;;6128499;23;20849;-91
2022/08/12 06:37:47;;;;;;;3.13;2.93;;;22.50;98.10;;;;;;6125580;23;20409;-92
2022/08/12 06:40:14;;;;;;;3.27;2.97;;;22.60;98.00;;;;;;6129394;23;20424;-93
2022/08/12 06:42:50;;;;;;;3.70;3.40;;;22.60;97.80;;;;;;6155084;23;20389;-94
2022/08/12 06:45:20;;;;;;;3.70;3.40;;;22.60;97.80;;;;;;6129181;23;20496;-93
2022/08/12 06:47:47;;;;;;;3.47;3.23;;;22.70;98.00;;;;;;6154800;23;20393;-94
2022/08/12 06:50:17;;;;;;;4.33;3.70;;;22.70;97.90;;;;;;6134448;23;20990;-92
2022/08/12 06:52:44;;;;;;;3.20;2.73;;;22.80;97.90;;;;;;6126438;23;20448;-92
2022/08/12 06:55:14;;;;;;;3.43;2.87;;;22.80;97.90;;;;;;6124441;23;20406;-93
2022/08/12 06:57:54;;;;;;;3.30;3.00;;;22.80;97.80;;;;;;6126321;23;20859;-94
2022/08/12 07:00:25;;;;;;;3.60;3.30;;;22.90;97.70;;;;;;6127371;23;20421;-93
2022/08/12 07:02:54;;;;;;;3.40;3.20;;;22.90;97.50;;;;;;6126682;23;20397;-92
2022/08/12 07:05:24;;;;;;;3.30;3.10;;;22.90;97.60;;;;;;6126352;23;20424;-93
2022/08/12 07:08:02;;;;;;;3.43;3.13;;;23.00;97.50;;;;;;6127132;23;20421;-92
2022/08/12 07:10:32;;;;;;;4.50;3.63;;;23.10;97.60;;;;;;6124522;23;20449;-91
2022/08/12 07:13:00;;;;;;;4.77;4.20;;;23.10;97.50;;;;;;6128937;23;20499;-92
2022/08/12 07:15:28;;;;;;;3.50;3.20;;;23.20;97.50;;;;;;6132273;23;20499;-92
2022/08/12 07:18:10;;;;;;;3.60;3.30;;;23.20;97.40;;;;;;6129530;23;20390;-93
2022/08/12 07:20:40;;;;;;;4.43;3.23;;;23.30;97.30;;;;;;6127620;23;20418;-92
2022/08/12 07:23:06;;;;;;;3.60;3.30;;;23.30;97.20;;;;;;6153994;23;20381;-92
2022/08/12 07:25:33;;;;;;;4.70;3.50;;;23.40;97.10;;;;;;6127441;23;20883;-92
2022/08/12 07:28:22;;;;;;;3.70;3.40;;;23.40;97.10;;;;;;6125855;23;20159;-93
2022/08/12 07:30:49;;;;;;;4.00;3.70;;;23.50;97.00;;;;;;6126093;23;20426;-92
2022/08/12 07:33:16;;;;;;;3.60;3.30;;;23.60;96.90;;;;;;6127717;23;20444;-91
2022/08/12 07:35:53;;;;;;;3.30;3.10;;;23.60;96.80;;;;;;6126042;23;20477;-92
2022/08/12 07:38:24;;;;;;;4.60;2.90;;;23.70;96.80;;;;;;6127201;23;20476;-91
2022/08/12 07:40:52;;;;;;;3.43;3.13;;;23.70;96.70;;;;;;6127286;23;20420;-92
2022/08/12 07:43:18;;;;;;;3.67;3.37;;;23.80;96.70;;;;;;6128564;23;20448;-93
2022/08/12 07:45:44;;;;;;;3.77;3.43;;;23.80;96.60;;;;;;6155129;23;20564;-92
2022/08/12 07:48:10;;;;;;;3.40;3.10;;;23.90;96.60;;;;;;6166652;23;20840;-92
2022/08/12 07:50:35;;;;;;;3.70;3.40;;;23.90;96.50;;;;;;6126595;23;20582;-93
2022/08/12 07:53:02;;;;;;;4.50;4.10;;;24.00;96.20;;;;;;6127709;23;20444;-93
2022/08/12 07:55:28;;;;;;;4.97;3.47;;;24.10;96.20;;;;;;6127685;23;20643;-92
2022/08/12 07:57:58;;;;;;;2.83;2.63;;;24.10;96.20;;;;;;6132242;23;20382;-92
2022/08/12 08:00:26;;;;;;;4.60;3.53;;;24.20;96.10;;;;;;6150657;23;20419;-92
2022/08/12 08:02:53;;;;;;;3.93;3.63;;;24.20;96.00;;;;;;6125361;23;20433;-93
2022/08/12 08:05:23;;;;;;;3.90;3.60;;;24.30;96.00;;;;;;6128006;23;20426;-91
2022/08/12 08:07:49;;;;;;;4.03;3.63;;;24.30;95.80;;;;;;6130531;23;20395;-93
2022/08/12 08:10:15;;;;;;;3.60;3.30;;;24.40;95.80;;;;;;6135924;23;20421;-91
2022/08/12 08:12:56;;;;;;;3.60;3.30;;;24.50;95.70;;;;;;6129555;23;20172;-92
2022/08/12 08:15:27;;;;;;;4.73;3.70;;;24.60;95.70;;;;;;6131798;23;20415;-91
2022/08/12 08:18:01;;;;;;;3.70;3.40;;;24.60;95.60;;;;;;6159784;23;20443;-92
2022/08/12 08:20:33;;;;;;;4.40;3.80;;;24.70;95.40;;;;;;6139567;23;20430;-91
2022/08/12 08:23:16;;;;;;;3.80;3.50;;;24.70;95.60;;;;;;6135603;23;20410;-91
2022/08/12 08:25:45;;;;;;;3.30;3.00;;;24.80;95.70;;;;;;6167108;23;20407;-93
2022/08/12 08:28:16;;;;;;;4.20;3.37;;;24.90;95.10;;;;;;6131786;23;20399;-93
2022/08/12 08:30:44;;;;;;;4.30;3.90;;;24.90;95.30;;;;;;6128626;23;20420;-92
2022/08/12 08:33:14;;;;;;;4.13;3.10;;;25.00;95.10;;;;;;6130040;23;20463;-93
2022/08/12 08:35:44;;;;;;;5.00;3.83;;;25.00;94.80;;;;;;6159827;23;20482;-93
2022/08/12 08:38:16;;;;;;;3.57;3.27;;;25.00;94.80;;;;;;6127472;23;20721;-91
2022/08/12 08:43:29;;;;;;;3.67;3.37;;;25.10;94.80;;;;;;6154218;23;20390;-91
2022/08/12 08:46:04;;;;;;;4.73;3.10;;;25.20;94.60;;;;;;6156387;23;20458;-93
2022/08/12 08:48:32;;;;;;;4.13;3.73;;;25.20;94.60;;;;;;6126119;23;20383;-92
2022/08/12 08:50:58;;;;;;;3.30;3.00;;;25.30;94.40;;;;;;6126995;23;20426;-92
2022/08/12 08:53:24;;;;;;;3.50;3.20;;;25.30;94.40;;;;;;6127572;23;20514;-92
2022/08/12 08:55:53;;;;;;;6.00;3.50;;;25.40;94.50;;;;;;6131520;23;20507;-94
2022/08/12 08:58:22;;;;;;;4.53;3.07;;;25.50;94.30;;;;;;6109469;23;20428;-92
2022/08/12 09:00:55;;;;;;;4.13;3.77;;;25.60;94.40;;;;;;6155433;23;20851;-93
2022/08/12 09:03:55;;;;;;;3.80;3.50;;;25.70;94.30;;;;;;6128557;23;20385;-93
2022/08/12 09:06:23;;;;;;;3.70;2.93;;;25.80;94.30;;;;;;6115779;23;20524;-93
2022/08/12 09:08:49;;;;;;;4.83;3.10;;;25.90;93.70;;;;;;6156357;23;20400;-94
2022/08/12 09:14:06;;;;;;;3.17;2.80;;;26.10;93.60;;;;;;6157816;23;20194;-93
2022/08/12 09:16:33;;;;;;;3.43;2.87;;;26.20;93.40;;;;;;6161552;23;20389;-93
2022/08/12 09:19:00;;;;;;;4.20;3.30;;;26.30;93.30;;;;;;6160764;23;20393;-92
2022/08/12 09:21:27;;;;;;;4.00;3.70;;;26.40;93.20;;;;;;6154816;23;20428;-93
2022/08/12 09:24:00;;;;;;;3.70;3.40;;;26.50;93.60;;;;;;6156184;23;20399;-93
2022/08/12 09:26:30;;;;;;;5.80;3.50;;;26.60;93.30;;;;;;6155052;23;20401;-93
2022/08/12 09:28:57;;;;;;;3.50;3.20;;;26.60;93.20;;;;;;6154811;23;20388;-94
2022/08/12 09:31:23;;;;;;;3.40;3.17;;;26.70;93.10;;;;;;6160709;23;20401;-94
2022/08/12 09:33:49;;;;;;;4.00;3.37;;;26.80;93.10;;;;;;6157617;23;20425;-94
2022/08/12 09:36:16;;;;;;;3.70;3.40;;;26.80;92.60;;;;;;6155256;23;20428;-93
2022/08/12 09:38:43;;;;;;;3.50;3.20;;;26.80;92.60;;;;;;6168151;23;20867;-93
2022/08/12 09:41:10;;;;;;;4.10;3.70;;;26.80;92.50;;;;;;6162084;23;20429;-93
2022/08/12 09:46:21;;;;;;;3.97;3.67;;;26.90;92.50;;;;;;6157905;23;20462;-93
2022/08/12 09:48:55;;;;;;;4.70;3.63;;;26.90;92.50;;;;;;6156465;23;20421;-93
2022/08/12 09:51:21;;;;;;;3.67;3.37;;;26.90;92.20;;;;;;6157569;23;20408;-91
2022/08/12 09:53:49;;;;;;;4.00;3.70;;;26.90;92.30;;;;;;6167273;23;20453;-94
2022/08/12 09:56:16;;;;;;;3.90;3.33;;;26.90;92.40;;;;;;6161795;23;20279;-93
2022/08/12 09:58:45;;;;;;;3.33;3.13;;;27.00;92.20;;;;;;6162725;23;20847;-93
2022/08/12 10:01:12;;;;;;;3.47;3.13;;;27.00;92.20;;;;;;6159090;23;20937;-93
2022/08/12 10:03:42;;;;;;;6.00;3.67;;;27.00;92.40;;;;;;6160540;23;20707;-93
2022/08/12 10:06:09;;;;;;;3.27;3.07;;;27.10;91.70;;;;;;6163071;23;20473;-93
2022/08/12 10:08:36;;;;;;;5.53;3.50;;;27.20;91.70;;;;;;6164015;23;20377;-93
2022/08/12 10:13:52;;;;;;;3.93;3.63;;;27.20;91.80;;;;;;6156800;23;20443;-92
2022/08/12 10:16:23;;;;;;;6.63;3.70;;;27.10;91.70;;;;;;6158157;23;20488;-93
2022/08/12 10:19:00;;;;;;;3.33;3.13;;;27.10;91.60;;;;;;6165373;23;20386;-93
2022/08/12 10:21:38;;;;;;;3.50;3.20;;;27.10;91.60;;;;;;6155470;23;20401;-93
2022/08/12 10:24:07;;;;;;;5.63;3.37;;;27.20;91.50;;;;;;6156381;23;20942;-92
2022/08/12 10:29:46;;;;;;;3.93;3.37;;;27.30;90.90;;;;;;6155282;23;20473;-92
2022/08/12 10:32:22;;;;;;;4.10;2.90;;;27.40;91.60;;;;;;6150938;23;20401;-92
2022/08/12 10:34:49;;;;;;;2.77;2.57;;;27.50;91.20;;;;;;6151720;23;20467;-91
2022/08/12 10:37:17;;;;;;;3.20;2.90;;;27.50;90.50;;;;;;6148062;23;20394;-92
2022/08/12 10:39:44;;;;;;;4.30;3.53;;;27.60;90.80;;;;;;6149703;23;20401;-92
2022/08/12 10:45:00;;;;;;;3.93;3.37;;;27.70;90.90;;;;;;6153478;23;20443;-91
2022/08/12 10:47:27;;;;;;;3.30;3.00;;;27.70;90.90;;;;;;6142611;23;20389;-92
2022/08/12 10:49:53;;;;;;;3.40;3.10;;;27.70;90.90;;;;;;6146532;23;20416;-92
2022/08/12 10:52:23;;;;;;;3.97;3.10;;;27.80;90.90;;;;;;6150889;23;20430;-91
2022/08/12 10:54:49;;;;;;;3.70;3.40;;;27.80;90.80;;;;;;6152577;23;20443;-92
2022/08/12 10:57:16;;;;;;;3.60;3.10;;;27.80;90.70;;;;;;6151148;23;20389;-91
2022/08/12 10:59:42;;;;;;;3.13;2.87;;;27.80;90.60;;;;;;6147748;23;20740;-92
2022/08/12 11:02:12;;;;;;;4.00;3.00;;;27.90;90.60;;;;;;6153014;23;20396;-92
2022/08/12 11:04:39;;;;;;;2.90;2.70;;;27.90;90.10;;;;;;6156686;23;20472;-92
2022/08/12 11:07:06;;;;;;;2.53;2.33;;;28.00;89.20;;;;;;6158012;23;20796;-92
2022/08/12 11:09:33;;;;;;;2.60;2.40;;;28.00;90.00;;;;;;6136419;23;20417;-93
2022/08/12 11:12:04;;;;;;;2.67;2.47;;;28.10;88.80;;;;;;6130191;23;20409;-92
2022/08/12 11:14:32;;;;;;;2.60;2.40;;;28.10;86.50;;;;;;6124947;23;20516;-92
2022/08/12 11:17:06;;;;;;;2.87;1.90;;;28.20;87.40;;;;;;6129814;23;20476;-92
2022/08/12 11:19:35;;;;;;;3.30;3.00;;;28.20;88.20;;;;;;6127751;23;20414;-92
2022/08/12 11:22:02;;;;;;;3.53;2.63;;;28.30;88.60;;;;;;6127850;23;20546;-92
2022/08/12 11:24:31;;;;;;;3.47;2.93;;;28.30;83.80;;;;;;6127969;23;20437;-92
2022/08/12 11:26:59;;;;;;;3.93;2.43;;;28.40;84.30;;;;;;6125982;23;20614;-92
2022/08/12 11:29:26;;;;;;;3.17;2.50;;;28.40;82.80;;;;;;6155440;23;20388;-93
2022/08/12 11:31:52;;;;;;;3.30;2.60;;;28.40;82.30;;;;;;6123809;23;20412;-93
2022/08/12 11:34:19;;;;;;;2.77;2.57;;;28.40;84.30;;;;;;6122424;23;20450;-92
2022/08/12 11:37:06;;;;;;;2.60;2.40;;;28.40;85.20;;;;;;6123519;23;20856;-94
2022/08/12 11:39:33;;;;;;;3.30;2.80;;;28.40;86.20;;;;;;6125657;23;20897;-94
2022/08/12 11:42:00;;;;;;;2.63;2.43;;;28.30;86.70;;;;;;6125749;23;20482;-93
2022/08/12 11:44:25;;;;;;;2.90;2.33;;;28.30;87.20;;;;;;6124973;23;20496;-93
2022/08/12 11:46:53;;;;;;;3.03;2.27;;;28.30;87.20;;;;;;6127343;23;20481;-93
2022/08/12 11:49:23;;;;;;;2.83;2.63;;;28.30;87.20;;;;;;6131080;23;20188;-93
2022/08/12 11:51:49;;;;;;;3.43;2.57;;;28.40;84.70;;;;;;6124770;23;20405;-94
2022/08/12 11:54:14;;;;;;;2.97;2.77;;;28.40;85.60;;;;;;6153787;23;20450;-94
2022/08/12 11:56:40;;;;;;;2.90;2.53;;;28.50;81.60;;;;;;6126262;23;20397;-92
2022/08/12 11:59:12;;;;;;;2.70;2.50;;;28.50;78.80;;;;;;6127738;23;20342;-92
2022/08/12 12:01:38;;;;;;;2.60;2.40;;;28.60;77.40;;;;;;6135553;23;20162;-93
2022/08/12 12:04:03;;;;;;;1.97;1.87;;;28.60;77.90;;;;;;6152337;23;20399;-92
2022/08/12 12:06:35;;;;;;;3.93;2.43;;;28.60;75.90;;;;;;6154085;23;20574;-93
2022/08/12 12:09:01;;;;;;;4.63;2.90;;;28.60;75.90;;;;;;6153801;23;20160;-91
2022/08/12 12:11:27;;;;;;;7.00;2.40;;;28.60;73.60;;;;;;6127273;23;20435;-93
2022/08/12 12:13:53;;;;;;;2.57;2.37;;;28.60;73.20;;;;;;6129210;23;20242;-93
2022/08/12 12:16:19;;;;;;;2.50;2.30;;;28.60;73.50;;;;;;6132904;23;20245;-93
2022/08/12 12:18:45;;;;;;;2.50;2.30;;;28.70;71.80;;;;;;6151836;23;20475;-92
2022/08/12 12:21:11;;;;;;;2.03;1.90;;;28.70;72.30;;;;;;6124662;23;20260;-93
2022/08/12 12:23:37;;;;;;;2.83;2.20;;;28.80;75.00;;;;;;6126048;23;20282;-92
2022/08/12 12:26:06;;;;;;;2.80;2.60;;;28.80;73.80;;;;;;6125058;23;20452;-93
2022/08/12 12:28:33;;;;;;;3.37;2.40;;;28.80;77.20;;;;;;6126981;23;20175;-93
2022/08/12 12:30:59;;;;;;;2.50;2.30;;;28.90;78.50;;;;;;6128945;23;20416;-93
2022/08/12 12:33:25;;;;;;;2.10;2.00;;;28.90;77.90;;;;;;6130704;23;20458;-93
2022/08/12 12:35:51;;;;;;;2.37;2.17;;;29.00;77.60;;;;;;6123355;23;20402;-93
2022/08/12 12:38:18;;;;;;;2.57;2.37;;;29.00;79.60;;;;;;6122886;23;20449;-93
2022/08/12 12:40:46;;;;;;;2.80;2.60;;;29.00;79.60;;;;;;6150152;23;20185;-94
2022/08/12 12:43:13;;;;;;;2.23;2.03;;;29.00;76.60;;;;;;6124663;23;20861;-92
2022/08/12 12:45:39;;;;;;;2.17;1.97;;;29.00;72.20;;;;;;6128659;23;20507;-92
2022/08/12 12:48:07;;;;;;;2.87;2.00;;;29.10;73.00;;;;;;6127390;23;20394;-93
2022/08/12 12:50:39;;;;;;;2.30;2.20;;;29.20;72.10;;;;;;6124101;23;20401;-93
2022/08/12 12:53:05;;;;;;;2.87;2.57;;;29.20;74.30;;;;;;6138704;23;20539;-92
2022/08/12 12:55:34;;;;;;;2.40;2.20;;;29.30;73.80;;;;;;6125932;23;20402;-93
2022/08/12 12:58:04;;;;;;;1.90;1.80;;;29.30;71.50;;;;;;6123569;23;20471;-93
2022/08/12 13:00:31;;;;;;;2.67;2.47;;;29.40;71.70;;;;;;6123585;23;20416;-93
2022/08/12 13:02:57;;;;;;;2.20;2.10;;;29.40;72.50;;;;;;6124083;23;20398;-93
2022/08/12 13:05:34;;;;;;;5.30;2.00;;;29.40;76.10;;;;;;6127616;23;20419;-94
2022/08/12 13:08:02;;;;;;;1.90;1.80;;;29.40;76.50;;;;;;6128416;23;20394;-93
2022/08/12 13:10:30;;;;;;;2.60;2.30;;;29.40;78.00;;;;;;6129909;23;20502;-93
2022/08/12 13:13:01;;;;;;;2.90;2.60;;;29.40;78.40;;;;;;6138117;23;20412;-94
2022/08/12 13:15:26;;;;;;;5.13;2.87;;;29.40;73.80;;;;;;6132049;23;20427;-93
2022/08/12 13:17:55;;;;;;;3.60;2.57;;;29.50;72.60;;;;;;6130634;23;20470;-93
2022/08/12 13:20:22;;;;;;;2.10;2.00;;;29.50;71.20;;;;;;6131077;23;20565;-94
2022/08/12 13:22:48;;;;;;;2.90;2.70;;;29.60;70.10;;;;;;6133266;23;20850;-92
2022/08/12 13:25:15;;;;;;;2.67;2.20;;;29.60;71.20;;;;;;6166435;23;20412;-92
2022/08/12 13:27:46;;;;;;;2.90;2.47;;;29.60;72.30;;;;;;6157519;23;20387;-93
2022/08/12 13:30:15;;;;;;;2.67;2.47;;;29.60;73.80;;;;;;6131112;23;20911;-92
2022/08/12 13:32:57;;;;;;;2.10;2.00;;;29.50;71.40;;;;;;6138150;23;20384;-93
2022/08/12 13:35:28;;;;;;;3.10;2.50;;;29.50;73.30;;;;;;6131744;23;20769;-93
2022/08/12 13:37:56;;;;;;;2.43;2.23;;;29.40;75.40;;;;;;6155146;23;20407;-92
2022/08/12 13:40:26;;;;;;;2.50;2.30;;;29.30;74.70;;;;;;6127841;23;20427;-92
2022/08/12 13:42:56;;;;;;;2.53;2.33;;;29.30;73.60;;;;;;6129867;23;20379;-93
2022/08/12 13:45:22;;;;;;;2.23;2.13;;;29.30;73.10;;;;;;6159789;23;20431;-93
2022/08/12 13:47:58;;;;;;;2.13;2.00;;;29.40;72.70;;;;;;6128124;23;20437;-93
2022/08/12 13:50:35;;;;;;;2.80;2.60;;;29.40;71.50;;;;;;6127668;23;20460;-93
2022/08/12 13:53:03;;;;;;;3.67;2.70;;;29.40;71.00;;;;;;6127261;23;20438;-93
2022/08/12 13:55:30;;;;;;;4.73;2.67;;;29.50;71.40;;;;;;6156198;23;20439;-93
2022/08/12 13:57:58;;;;;;;2.20;2.00;;;29.50;70.40;;;;;;6132868;23;20395;-91
2022/08/12 14:00:26;;;;;;;3.43;2.20;;;29.50;70.50;;;;;;6141982;23;20447;-93
2022/08/12 14:02:53;;;;;;;2.23;1.83;;;29.50;73.10;;;;;;6130977;23;20379;-92
2022/08/12 14:05:19;;;;;;;2.60;2.40;;;29.50;71.60;;;;;;6127079;23;20428;-93
2022/08/12 14:07:54;;;;;;;2.50;2.30;;;29.50;74.90;;;;;;6150276;23;20401;-94
2022/08/12 14:10:36;;;;;;;3.10;2.43;;;29.50;75.80;;;;;;6125577;23;20451;-93
2022/08/12 14:13:08;;;;;;;2.20;2.10;;;29.50;74.20;;;;;;6153491;23;20416;-93
2022/08/12 14:15:49;;;;;;;3.80;3.33;;;29.60;70.80;;;;;;6126143;23;20426;-91
2022/08/12 14:18:20;;;;;;;2.50;2.30;;;29.60;70.80;;;;;;6127736;23;20452;-93
2022/08/12 14:20:51;;;;;;;3.07;2.70;;;29.60;70.60;;;;;;6134185;23;20403;-92
2022/08/12 14:23:18;;;;;;;2.40;2.30;;;29.60;72.20;;;;;;6129372;23;20464;-93
2022/08/12 14:25:46;;;;;;;2.50;2.30;;;29.60;73.10;;;;;;6154167;23;20407;-93
2022/08/12 14:28:15;;;;;;;5.40;2.73;;;29.60;73.30;;;;;;6128717;23;20465;-92
2022/08/12 14:30:43;;;;;;;2.90;2.40;;;29.70;72.90;;;;;;6126967;23;20412;-93
2022/08/12 14:33:09;;;;;;;2.60;2.40;;;29.70;72.70;;;;;;6125675;23;20949;-93
2022/08/12 14:35:35;;;;;;;3.83;2.60;;;29.70;70.60;;;;;;6126882;23;20404;-93
2022/08/12 14:38:15;;;;;;;3.53;2.70;;;29.80;72.10;;;;;;6127683;23;20481;-93
2022/08/12 14:40:41;;;;;;;2.57;2.37;;;29.70;71.00;;;;;;6128323;23;20915;-92
2022/08/12 14:43:06;;;;;;;2.90;2.70;;;29.70;72.60;;;;;;6128670;23;20473;-93